Time;durP1;ratioP1;P1;durP2;ratioP2;P2;SDS_P1;SDS_P2;PMS_P1;PMS_P2;Temp;Humidity;BMP_temperature;BMP_pressure;BME280_temperature;BME280_humidity;BME280_pressure;Samples;Min_cycle;Max_cycle;Signal;HPM_P1;HPM_P2
2022/03/17 00:02:14;;;;;;;;;;;10.70;99.90;;;;;;5009168;28;19933;-73
2022/03/17 00:04:40;;;;;;;;;;;10.60;99.90;;;;;;5015857;28;19929;-73
2022/03/17 00:07:07;;;;;;;;;;;10.60;99.90;;;;;;5013687;28;19940;-73
2022/03/17 00:09:34;;;;;;;;;;;10.60;99.90;;;;;;5029717;28;19929;-73
2022/03/17 00:12:00;;;;;;;;;;;10.60;99.90;;;;;;4998151;28;19935;-73
2022/03/17 00:14:26;;;;;;;;;;;10.60;99.90;;;;;;4998128;28;19928;-73
2022/03/17 00:16:51;;;;;;;;;;;10.60;99.90;;;;;;5017398;28;19928;-73
2022/03/17 00:19:17;;;;;;;;;;;10.60;99.90;;;;;;5013517;28;19935;-73
2022/03/17 00:21:43;;;;;;;;;;;10.60;99.90;;;;;;5000344;28;19929;-73
2022/03/17 00:24:08;;;;;;;;;;;10.70;99.90;;;;;;4996869;28;19946;-73
2022/03/17 00:26:34;;;;;;;;;;;10.60;99.90;;;;;;5003358;28;19929;-73
2022/03/17 00:29:02;;;;;;;;;;;10.60;99.90;;;;;;5016925;28;20411;-73
2022/03/17 00:31:29;;;;;;;;;;;10.70;99.90;;;;;;4999801;28;19929;-73
2022/03/17 00:33:54;;;;;;;;;;;10.60;99.90;;;;;;5016208;28;20031;-73
2022/03/17 00:36:20;;;;;;;;;;;10.60;99.90;;;;;;5018188;28;20340;-73
2022/03/17 00:38:46;;;;;;;;;;;10.60;99.90;;;;;;5001193;28;19933;-72
2022/03/17 00:41:11;;;;;;;;;;;10.60;99.90;;;;;;5017173;28;19944;-73
2022/03/17 00:43:37;;;;;;;;;;;10.60;99.90;;;;;;5015970;28;20919;-73
2022/03/17 00:46:03;;;;;;;;;;;10.60;99.90;;;;;;4994937;28;19933;-73
2022/03/17 00:48:29;;;;;;;;;;;10.60;99.90;;;;;;5013738;28;20495;-73
2022/03/17 00:50:55;;;;;;;;;;;10.60;99.90;;;;;;4994883;28;19929;-73
2022/03/17 00:53:20;;;;;;;;;;;10.60;99.90;;;;;;5012820;28;20046;-73
2022/03/17 00:55:46;;;;;;;;;;;10.60;99.90;;;;;;5004267;28;20003;-73
2022/03/17 00:58:12;;;;;;;;;;;10.60;99.90;;;;;;5001287;28;19932;-73
2022/03/17 01:00:38;;;;;;;;;;;10.60;99.90;;;;;;5001621;28;20386;-73
2022/03/17 01:03:05;;;;;;;;;;;10.60;99.90;;;;;;5005848;28;20020;-73
2022/03/17 01:05:30;;;;;;;;;;;10.60;99.90;;;;;;5003080;28;19944;-73
2022/03/17 01:07:56;;;;;;;;;;;10.60;99.90;;;;;;5001010;28;19960;-73
2022/03/17 01:10:22;;;;;;;;;;;10.60;99.90;;;;;;4988647;28;20146;-73
2022/03/17 01:12:48;;;;;;;;;;;10.60;99.90;;;;;;5020595;28;19939;-73
2022/03/17 01:15:15;;;;;;;;;;;10.60;99.90;;;;;;4999721;28;20024;-73
2022/03/17 01:17:40;;;;;;;;;;;10.60;99.90;;;;;;5002885;28;20401;-73
2022/03/17 01:20:06;;;;;;;;;;;10.60;99.90;;;;;;5002800;28;20011;-73
2022/03/17 01:22:32;;;;;;;;;;;10.60;99.90;;;;;;5004840;28;20297;-73
2022/03/17 01:24:58;;;;;;;;;;;10.60;99.90;;;;;;5004206;28;20015;-73
2022/03/17 01:27:24;;;;;;;;;;;10.60;99.90;;;;;;5020396;28;19925;-73
2022/03/17 01:29:50;;;;;;;;;;;10.50;99.90;;;;;;5002685;28;19932;-73
2022/03/17 01:32:16;;;;;;;;;;;10.50;99.90;;;;;;5021101;28;19936;-73
2022/03/17 01:34:41;;;;;;;;;;;10.60;99.90;;;;;;5020564;28;19928;-73
2022/03/17 01:37:07;;;;;;;;;;;10.60;99.90;;;;;;5019879;28;20266;-73
2022/03/17 01:39:32;;;;;;;;;;;10.50;99.90;;;;;;5019599;28;19936;-73
2022/03/17 01:41:58;;;;;;;;;;;10.60;99.90;;;;;;4987190;28;19935;-73
2022/03/17 01:44:24;;;;;;;;;;;10.60;99.90;;;;;;5005224;28;22179;-73
2022/03/17 01:49:38;;;;;;;;;;;10.60;99.90;;;;;;5024605;28;20906;-73
2022/03/17 01:52:04;;;;;;;;;;;10.50;99.90;;;;;;5005970;28;19924;-73
2022/03/17 01:54:30;;;;;;;;;;;10.50;99.90;;;;;;4989010;28;20010;-73
2022/03/17 01:56:58;;;;;;;;;;;10.50;99.90;;;;;;5022896;28;19933;-73
2022/03/17 01:59:25;;;;;;;;;;;10.50;99.90;;;;;;5023230;28;19951;-73
2022/03/17 02:01:52;;;;;;;;;;;10.50;99.90;;;;;;5021902;28;19935;-73
2022/03/17 02:04:17;;;;;;;;;;;10.40;99.90;;;;;;5023491;28;19939;-73
2022/03/17 02:06:43;;;;;;;;;;;10.40;99.90;;;;;;5025322;28;20586;-73
2022/03/17 02:09:09;;;;;;;;;;;10.50;99.90;;;;;;5025170;28;19928;-73
2022/03/17 02:14:22;;;;;;;;;;;10.40;99.90;;;;;;5005827;28;19972;-73
2022/03/17 02:16:52;;;;;;;;;;;10.30;99.90;;;;;;5007991;28;19929;-73
2022/03/17 02:19:18;;;;;;;;;;;10.40;99.90;;;;;;5023288;28;19935;-73
2022/03/17 02:21:44;;;;;;;;;;;10.30;99.90;;;;;;5024414;28;19929;-73
2022/03/17 02:26:57;;;;;;;;;;;10.40;99.90;;;;;;5005252;28;20019;-73
2022/03/17 02:29:22;;;;;;;;;;;10.30;99.90;;;;;;5006999;28;19964;-73
2022/03/17 02:31:48;;;;;;;;;;;10.30;99.90;;;;;;5023983;28;20158;-73
2022/03/17 02:34:16;;;;;;;;;;;10.30;99.90;;;;;;5006360;28;19936;-73
2022/03/17 02:36:48;;;;;;;;;;;10.30;99.90;;;;;;5006029;28;19935;-72
2022/03/17 02:39:15;;;;;;;;;;;10.30;99.90;;;;;;5004101;28;20023;-73
2022/03/17 02:41:40;;;;;;;;;;;10.40;99.90;;;;;;5006516;28;19928;-73
2022/03/17 02:44:06;;;;;;;;;;;10.40;99.90;;;;;;5022681;28;19929;-73
2022/03/17 02:46:31;;;;;;;;;;;10.40;99.90;;;;;;5006811;28;20758;-73
2022/03/17 02:48:57;;;;;;;;;;;10.50;99.90;;;;;;5005103;28;20770;-73
2022/03/17 02:51:22;;;;;;;;;;;10.50;99.90;;;;;;4989832;28;19929;-73
2022/03/17 02:53:48;;;;;;;;;;;10.50;99.90;;;;;;5022626;28;19983;-73
2022/03/17 02:56:14;;;;;;;;;;;10.50;99.90;;;;;;5004712;28;20529;-73
2022/03/17 02:58:39;;;;;;;;;;;10.40;99.90;;;;;;5021338;28;19929;-73
2022/03/17 03:01:05;;;;;;;;;;;10.50;99.90;;;;;;5004792;28;19933;-73
2022/03/17 03:03:30;;;;;;;;;;;10.50;99.90;;;;;;5021256;28;19971;-73
2022/03/17 03:05:56;;;;;;;;;;;10.40;99.90;;;;;;5004046;28;20636;-73
2022/03/17 03:08:22;;;;;;;;;;;10.40;99.90;;;;;;5002061;28;20428;-73
2022/03/17 03:10:47;;;;;;;;;;;10.40;99.90;;;;;;4991013;28;19929;-73
2022/03/17 03:13:13;;;;;;;;;;;10.40;99.90;;;;;;5005505;28;20958;-73
2022/03/17 03:15:39;;;;;;;;;;;10.30;99.90;;;;;;5004397;28;19955;-73
2022/03/17 03:18:05;;;;;;;;;;;10.30;99.90;;;;;;5001138;28;19940;-73
2022/03/17 03:20:31;;;;;;;;;;;10.40;99.90;;;;;;5024366;28;21192;-73
2022/03/17 03:22:57;;;;;;;;;;;10.40;99.90;;;;;;5023200;28;19933;-73
2022/03/17 03:25:22;;;;;;;;;;;10.40;99.90;;;;;;5004632;28;19928;-73
2022/03/17 03:27:48;;;;;;;;;;;10.40;99.90;;;;;;5021632;28;20531;-73
2022/03/17 03:30:14;;;;;;;;;;;10.30;99.90;;;;;;5004761;28;20657;-73
2022/03/17 03:32:40;;;;;;;;;;;10.30;99.90;;;;;;5020485;28;19940;-73
2022/03/17 03:37:51;;;;;;;;;;;10.30;99.90;;;;;;5018906;28;19929;-73
2022/03/17 03:40:16;;;;;;;;;;;10.30;99.90;;;;;;5020315;28;20116;-73
2022/03/17 03:42:42;;;;;;;;;;;10.40;99.90;;;;;;5002949;28;19929;-73
2022/03/17 03:45:08;;;;;;;;;;;10.40;99.90;;;;;;5021987;28;20377;-73
2022/03/17 03:47:33;;;;;;;;;;;10.40;99.90;;;;;;5003922;28;20302;-73
2022/03/17 03:49:59;;;;;;;;;;;10.40;99.90;;;;;;5003436;28;19993;-73
2022/03/17 03:52:24;;;;;;;;;;;10.40;99.90;;;;;;5004375;28;19936;-73
2022/03/17 03:54:50;;;;;;;;;;;10.40;99.90;;;;;;5006338;28;20378;-73
2022/03/17 03:57:15;;;;;;;;;;;10.40;99.90;;;;;;5005258;28;19940;-73
2022/03/17 03:59:42;;;;;;;;;;;10.40;99.90;;;;;;5021805;28;19928;-73
2022/03/17 04:02:09;;;;;;;;;;;10.50;99.90;;;;;;5021717;28;19929;-73
2022/03/17 04:04:35;;;;;;;;;;;10.40;99.90;;;;;;5023130;28;20369;-73
2022/03/17 04:07:03;;;;;;;;;;;10.50;99.90;;;;;;5020792;28;19928;-73
2022/03/17 04:09:30;;;;;;;;;;;10.50;99.90;;;;;;5006464;28;20401;-73
2022/03/17 04:11:56;;;;;;;;;;;10.50;99.90;;;;;;5002627;28;19976;-73
2022/03/17 04:14:22;;;;;;;;;;;10.50;99.90;;;;;;5004233;28;20040;-73
2022/03/17 04:16:48;;;;;;;;;;;10.50;99.90;;;;;;5022438;28;20815;-73
2022/03/17 04:19:15;;;;;;;;;;;10.50;99.90;;;;;;5003519;28;19951;-73
2022/03/17 04:21:41;;;;;;;;;;;10.50;99.90;;;;;;5003100;28;19955;-73
2022/03/17 04:24:06;;;;;;;;;;;10.50;99.90;;;;;;5001638;28;19929;-73
2022/03/17 04:26:32;;;;;;;;;;;10.50;99.90;;;;;;4995421;28;19940;-73
2022/03/17 04:28:57;;;;;;;;;;;10.50;99.90;;;;;;5020092;28;20039;-73
2022/03/17 04:31:23;;;;;;;;;;;10.60;99.90;;;;;;5021223;28;19936;-73
2022/03/17 04:33:50;;;;;;;;;;;10.70;99.90;;;;;;5004935;28;19929;-73
2022/03/17 04:36:16;;;;;;;;;;;10.70;99.90;;;;;;5003716;28;20378;-74
2022/03/17 04:38:42;;;;;;;;;;;10.70;99.90;;;;;;5023518;28;19935;-74
2022/03/17 04:41:10;;;;;;;;;;;10.70;99.90;;;;;;5022160;28;19971;-73
2022/03/17 04:43:37;;;;;;;;;;;10.70;99.90;;;;;;5002010;28;19963;-74
2022/03/17 04:46:03;;;;;;;;;;;10.80;99.90;;;;;;5020575;28;20409;-74
2022/03/17 04:48:29;;;;;;;;;;;10.80;99.90;;;;;;5021441;28;20016;-74
2022/03/17 04:50:54;;;;;;;;;;;10.90;99.90;;;;;;5021003;28;19982;-74
2022/03/17 04:53:32;;;;;;;;;;;11.00;99.90;;;;;;5005316;28;19978;-74
2022/03/17 04:56:05;;;;;;;;;;;11.00;99.90;;;;;;5021949;28;19936;-74
2022/03/17 04:58:31;;;;;;;;;;;11.00;99.90;;;;;;5002832;28;19928;-74
2022/03/17 05:00:58;;;;;;;;;;;10.90;99.90;;;;;;5022728;28;19932;-75
2022/03/17 05:03:24;;;;;;;;;;;10.80;99.90;;;;;;5020518;28;20441;-75
2022/03/17 05:05:49;;;;;;;;;;;10.70;99.90;;;;;;5002124;28;19959;-75
2022/03/17 05:08:15;;;;;;;;;;;10.60;99.90;;;;;;5002935;28;19970;-75
2022/03/17 05:10:41;;;;;;;;;;;10.60;99.90;;;;;;5020449;28;20453;-75
2022/03/17 05:13:07;;;;;;;;;;;10.40;99.90;;;;;;5000247;28;19929;-75
2022/03/17 05:15:33;;;;;;;;;;;10.30;99.90;;;;;;5003077;28;19956;-74
2022/03/17 05:17:59;;;;;;;;;;;10.30;99.90;;;;;;5019466;28;20461;-75
2022/03/17 05:20:25;;;;;;;;;;;10.30;99.90;;;;;;5019994;28;20483;-74
2022/03/17 05:22:51;;;;;;;;;;;10.20;99.90;;;;;;5004935;28;19990;-75
2022/03/17 05:25:16;;;;;;;;;;;10.20;99.90;;;;;;5019639;28;19997;-75
2022/03/17 05:27:42;;;;;;;;;;;10.20;99.90;;;;;;5018328;28;20287;-75
2022/03/17 05:30:09;;;;;;;;;;;10.20;99.90;;;;;;5016744;28;20404;-75
2022/03/17 05:32:35;;;;;;;;;;;10.10;99.90;;;;;;5017664;28;19951;-75
2022/03/17 05:35:00;;;;;;;;;;;10.10;99.90;;;;;;5001129;28;19929;-75
2022/03/17 05:37:26;;;;;;;;;;;10.20;99.90;;;;;;5017464;28;19929;-75
2022/03/17 05:39:52;;;;;;;;;;;10.20;99.90;;;;;;4989995;28;19929;-76
2022/03/17 05:42:18;;;;;;;;;;;10.10;99.90;;;;;;4972427;28;19990;-74
2022/03/17 05:44:43;;;;;;;;;;;10.00;99.90;;;;;;5011890;28;19932;-74
2022/03/17 05:47:09;;;;;;;;;;;9.80;99.90;;;;;;5013158;28;19924;-74
2022/03/17 05:49:34;;;;;;;;;;;9.70;99.90;;;;;;5013498;28;19939;-74
2022/03/17 05:52:00;;;;;;;;;;;9.50;99.90;;;;;;5011878;28;20396;-74
2022/03/17 05:54:26;;;;;;;;;;;9.50;99.90;;;;;;4978495;28;20030;-74
2022/03/17 05:56:51;;;;;;;;;;;9.40;99.90;;;;;;5013722;28;19968;-74
2022/03/17 05:59:17;;;;;;;;;;;9.30;99.90;;;;;;4991466;28;19943;-74
2022/03/17 06:01:43;;;;;;;;;;;9.20;99.90;;;;;;4994028;28;19929;-74
2022/03/17 06:04:08;;;;;;;;;;;9.10;99.90;;;;;;5008885;28;19947;-74
2022/03/17 06:06:34;;;;;;;;;;;9.10;99.90;;;;;;4986450;28;19945;-74
2022/03/17 06:09:00;;;;;;;;;;;9.00;99.90;;;;;;5007667;28;20055;-74
2022/03/17 06:11:27;;;;;;;;;;;9.00;99.90;;;;;;5001547;28;20571;-74
2022/03/17 06:13:53;;;;;;;;;;;9.00;99.90;;;;;;4981930;28;19929;-74
2022/03/17 06:16:20;;;;;;;;;;;8.90;99.90;;;;;;5001338;28;20529;-74
2022/03/17 06:18:46;;;;;;;;;;;8.90;99.90;;;;;;5003319;28;20476;-74
2022/03/17 06:21:12;;;;;;;;;;;8.80;99.90;;;;;;5022221;28;19928;-74
2022/03/17 06:23:37;;;;;;;;;;;8.80;99.90;;;;;;5006021;28;20310;-73
2022/03/17 06:26:03;;;;;;;;;;;8.80;99.90;;;;;;5024681;28;19928;-74
2022/03/17 06:28:29;;;;;;;;;;;8.80;99.90;;;;;;5006337;28;19929;-73
2022/03/17 06:30:55;;;;;;;;;;;8.80;99.90;;;;;;5023553;28;20333;-74
2022/03/17 06:33:20;;;;;;;;;;;8.80;99.90;;;;;;5026873;28;19929;-74
2022/03/17 06:35:46;;;;;;;;;;;8.70;99.90;;;;;;5023112;28;19933;-74
2022/03/17 06:38:12;;;;;;;;;;;8.70;99.90;;;;;;5004289;28;20040;-74
2022/03/17 06:40:37;;;;;;;;;;;8.70;99.90;;;;;;5007608;28;19932;-74
2022/03/17 06:43:03;;;;;;;;;;;8.70;99.90;;;;;;5005814;28;19929;-74
2022/03/17 06:45:29;;;;;;;;;;;8.60;99.90;;;;;;5023698;28;20717;-75
2022/03/17 06:47:55;;;;;;;;;;;8.70;99.90;;;;;;5007323;28;19929;-74
2022/03/17 06:50:21;;;;;;;;;;;8.70;99.90;;;;;;5009594;28;19982;-75
2022/03/17 06:52:47;;;;;;;;;;;8.70;99.90;;;;;;5007242;28;20374;-75
2022/03/17 06:55:12;;;;;;;;;;;8.70;99.90;;;;;;5003507;28;19936;-74
2022/03/17 06:57:38;;;;;;;;;;;8.70;99.90;;;;;;5023099;28;19928;-74
2022/03/17 07:00:06;;;;;;;;;;;8.70;99.90;;;;;;5008998;28;20040;-74
2022/03/17 07:02:32;;;;;;;;;;;8.70;99.90;;;;;;4990248;28;19933;-74
2022/03/17 07:04:57;;;;;;;;;;;8.60;99.90;;;;;;4978710;28;19929;-73
2022/03/17 07:07:23;;;;;;;;;;;8.60;99.90;;;;;;5003320;28;19940;-73
2022/03/17 07:09:49;;;;;;;;;;;8.60;99.90;;;;;;5004576;28;19983;-75
2022/03/17 07:12:15;;;;;;;;;;;8.60;99.90;;;;;;4986649;28;20011;-73
2022/03/17 07:14:40;;;;;;;;;;;8.60;99.90;;;;;;4988509;28;19925;-74
2022/03/17 07:17:07;;;;;;;;;;;8.60;99.90;;;;;;4986882;28;19944;-75
2022/03/17 07:19:32;;;;;;;;;;;8.50;99.90;;;;;;5002704;28;19929;-74
2022/03/17 07:21:58;;;;;;;;;;;8.50;99.90;;;;;;5003905;28;19940;-74
2022/03/17 07:24:24;;;;;;;;;;;8.50;99.90;;;;;;5006825;28;19979;-73
2022/03/17 07:26:49;;;;;;;;;;;8.50;99.90;;;;;;4988623;28;19986;-74
2022/03/17 07:29:15;;;;;;;;;;;8.50;99.90;;;;;;4988255;28;19956;-73
2022/03/17 07:31:40;;;;;;;;;;;8.50;99.90;;;;;;4986281;28;20021;-73
2022/03/17 07:34:07;;;;;;;;;;;8.60;99.90;;;;;;4972050;28;20333;-74
2022/03/17 07:36:32;;;;;;;;;;;8.60;99.90;;;;;;4984962;28;20024;-74
2022/03/17 07:38:58;;;;;;;;;;;8.60;99.90;;;;;;4988829;28;19929;-74
2022/03/17 07:41:24;;;;;;;;;;;8.60;99.90;;;;;;5004667;28;19929;-73
2022/03/17 07:43:50;;;;;;;;;;;8.50;99.90;;;;;;4982712;28;19929;-74
2022/03/17 07:46:16;;;;;;;;;;;8.60;99.90;;;;;;5004201;28;19940;-74
2022/03/17 07:48:41;;;;;;;;;;;8.60;99.90;;;;;;4987904;28;20865;-74
2022/03/17 07:51:10;;;;;;;;;;;8.60;99.90;;;;;;5005581;28;19936;-74
2022/03/17 07:53:37;;;;;;;;;;;8.60;99.90;;;;;;4986812;28;19940;-73
2022/03/17 07:56:03;;;;;;;;;;;8.60;99.90;;;;;;5006771;28;19929;-72
2022/03/17 07:58:28;;;;;;;;;;;8.60;99.90;;;;;;4987240;28;19948;-74
2022/03/17 08:00:56;;;;;;;;;;;8.60;99.90;;;;;;4987213;28;20008;-72
2022/03/17 08:03:21;;;;;;;;;;;8.50;99.90;;;;;;4992315;28;19925;-74
2022/03/17 08:05:47;;;;;;;;;;;8.60;99.90;;;;;;5022364;28;20010;-73
2022/03/17 08:08:16;;;;;;;;;;;8.60;99.90;;;;;;5021105;28;20137;-74
2022/03/17 08:10:42;;;;;;;;;;;8.60;99.90;;;;;;4979548;28;19935;-74
2022/03/17 08:13:10;;;;;;;;;;;8.70;99.90;;;;;;5025030;28;19929;-74
2022/03/17 08:15:39;;;;;;;;;;;8.70;99.90;;;;;;5022047;28;19932;-73
2022/03/17 08:18:06;;;;;;;;;;;8.70;99.90;;;;;;5003309;28;20025;-74
2022/03/17 08:20:32;;;;;;;;;;;8.70;99.90;;;;;;5025240;28;19983;-74
2022/03/17 08:22:58;;;;;;;;;;;8.60;99.90;;;;;;5004124;28;19939;-74
2022/03/17 08:25:24;;;;;;;;;;;8.60;99.90;;;;;;5021612;28;19929;-74
2022/03/17 08:27:50;;;;;;;;;;;8.60;99.90;;;;;;5008037;28;20302;-74
2022/03/17 08:30:16;;;;;;;;;;;8.50;99.90;;;;;;5003931;28;19932;-74
2022/03/17 08:32:42;;;;;;;;;;;8.50;99.90;;;;;;5003830;28;20385;-73
2022/03/17 08:35:08;;;;;;;;;;;8.50;99.90;;;;;;5021651;28;19924;-73
2022/03/17 08:37:44;;;;;;;;;;;8.60;99.90;;;;;;5005382;28;19971;-73
2022/03/17 08:40:10;;;;;;;;;;;8.60;99.90;;;;;;5003357;28;20457;-73
2022/03/17 08:42:36;;;;;;;;;;;8.50;99.90;;;;;;5005486;28;20014;-73
2022/03/17 08:49:18;;;;;;;;;;;8.50;99.90;;;;;;5024104;28;19933;-74
2022/03/17 08:50:32;;;;;;;;;;;8.60;99.90;;;;;;5003556;28;20136;-73
2022/03/17 08:52:58;;;;;;;;;;;8.60;99.90;;;;;;5004403;28;19929;-73
2022/03/17 08:55:24;;;;;;;;;;;8.60;99.90;;;;;;5024634;28;19951;-73
2022/03/17 08:57:49;;;;;;;;;;;8.60;99.90;;;;;;4990518;28;19929;-74
2022/03/17 09:00:15;;;;;;;;;;;8.50;99.90;;;;;;5023630;28;20024;-73
2022/03/17 09:02:44;;;;;;;;;;;8.50;99.90;;;;;;4988819;28;20449;-73
2022/03/17 09:05:10;;;;;;;;;;;8.40;99.90;;;;;;4996793;28;20020;-74
2022/03/17 09:07:36;;;;;;;;;;;8.50;99.90;;;;;;5003025;28;19986;-73
2022/03/17 09:10:02;;;;;;;;;;;8.50;99.90;;;;;;5011764;28;20392;-73
2022/03/17 09:12:30;;;;;;;;;;;8.50;99.90;;;;;;5002255;28;19935;-74
2022/03/17 09:14:56;;;;;;;;;;;8.60;99.90;;;;;;5002613;28;20011;-74
2022/03/17 09:17:21;;;;;;;;;;;8.70;99.90;;;;;;5006097;28;19932;-73
2022/03/17 09:19:47;;;;;;;;;;;8.60;99.90;;;;;;5008252;28;19936;-72
2022/03/17 09:22:13;;;;;;;;;;;8.60;99.90;;;;;;4994139;28;20546;-72
2022/03/17 09:24:38;;;;;;;;;;;8.60;99.90;;;;;;5010192;28;19982;-73
2022/03/17 09:27:05;;;;;;;;;;;8.50;99.90;;;;;;5008365;28;19976;-74
2022/03/17 09:29:31;;;;;;;;;;;8.50;99.90;;;;;;5007583;28;20386;-73
2022/03/17 09:31:58;;;;;;;;;;;8.60;99.90;;;;;;5008847;28;19933;-73
2022/03/17 09:34:24;;;;;;;;;;;8.60;99.90;;;;;;5021349;28;19932;-74
2022/03/17 09:36:50;;;;;;;;;;;8.60;99.90;;;;;;5024607;28;19928;-73
2022/03/17 09:41:59;;;;;;;;;;;8.80;99.90;;;;;;5024907;28;19925;-73
2022/03/17 09:44:25;;;;;;;;;;;8.90;99.90;;;;;;5002570;28;19933;-73
2022/03/17 09:46:52;;;;;;;;;;;9.00;99.90;;;;;;5027241;28;20286;-73
2022/03/17 09:49:18;;;;;;;;;;;9.10;99.90;;;;;;5005056;28;20640;-73
2022/03/17 09:51:45;;;;;;;;;;;9.10;99.90;;;;;;5005673;28;19937;-73
2022/03/17 09:54:11;;;;;;;;;;;9.30;99.90;;;;;;5009209;28;19929;-73
2022/03/17 09:56:37;;;;;;;;;;;9.30;99.90;;;;;;5007308;28;19931;-73
2022/03/17 09:59:03;;;;;;;;;;;9.20;99.90;;;;;;5004468;28;20302;-73
2022/03/17 10:01:29;;;;;;;;;;;9.20;99.90;;;;;;5024056;28;19940;-73
2022/03/17 10:04:01;;;;;;;;;;;9.10;99.90;;;;;;5029166;28;19935;-73
2022/03/17 10:06:28;;;;;;;;;;;9.20;99.90;;;;;;5006366;28;19929;-74
2022/03/17 10:08:55;;;;;;;;;;;9.20;99.90;;;;;;5026294;28;19944;-73
2022/03/17 10:11:25;;;;;;;;;;;9.30;99.90;;;;;;5025203;28;19935;-74
2022/03/17 10:13:51;;;;;;;;;;;9.40;99.90;;;;;;5007256;28;19928;-73
2022/03/17 10:16:17;;;;;;;;;;;9.40;99.90;;;;;;5022282;28;19939;-74
2022/03/17 10:18:45;;;;;;;;;;;9.40;99.90;;;;;;5020928;28;19925;-73
2022/03/17 10:21:24;;;;;;;;;;;9.40;99.90;;;;;;5006902;28;19929;-73
2022/03/17 10:23:59;;;;;;;;;;;9.40;99.90;;;;;;5007075;28;19976;-73
2022/03/17 10:26:31;;;;;;;;;;;9.50;99.90;;;;;;5005497;28;20004;-74
2022/03/17 10:29:07;;;;;;;;;;;9.30;99.90;;;;;;5021953;28;20376;-73
2022/03/17 10:31:48;;;;;;;;;;;9.20;99.90;;;;;;5007490;28;19936;-73
2022/03/17 10:34:14;;;;;;;;;;;9.40;99.90;;;;;;5006435;28;19932;-73
2022/03/17 10:36:41;;;;;;;;;;;9.50;99.90;;;;;;5025087;28;19929;-73
2022/03/17 10:39:09;;;;;;;;;;;9.60;99.90;;;;;;5021919;28;20019;-73
2022/03/17 10:41:42;;;;;;;;;;;9.70;99.90;;;;;;5008353;28;20124;-73
2022/03/17 10:44:12;;;;;;;;;;;9.90;99.90;;;;;;5026416;28;19936;-73
2022/03/17 10:46:38;;;;;;;;;;;9.90;99.90;;;;;;4991614;28;19982;-73
2022/03/17 10:49:05;;;;;;;;;;;10.10;99.90;;;;;;5009306;28;20387;-74
2022/03/17 10:51:31;;;;;;;;;;;10.10;99.90;;;;;;5003026;28;19933;-73
2022/03/17 10:54:04;;;;;;;;;;;10.10;99.90;;;;;;5006327;28;19971;-73
2022/03/17 10:56:30;;;;;;;;;;;10.10;99.90;;;;;;5008654;28;20034;-73
2022/03/17 10:58:56;;;;;;;;;;;10.30;99.90;;;;;;5005935;28;20052;-73
2022/03/17 11:01:55;;;;;;;;;;;10.50;99.90;;;;;;5023766;28;20402;-73
2022/03/17 11:04:21;;;;;;;;;;;10.50;99.90;;;;;;4965128;28;20002;-73
2022/03/17 11:06:46;;;;;;;;;;;11.00;99.90;;;;;;4979559;28;19944;-73
2022/03/17 11:09:12;;;;;;;;;;;11.40;99.90;;;;;;4983164;28;19928;-73
2022/03/17 11:11:38;;;;;;;;;;;11.40;99.90;;;;;;5002194;28;20522;-73
2022/03/17 11:14:09;;;;;;;;;;;11.20;99.90;;;;;;4998872;28;20515;-74
2022/03/17 11:16:42;;;;;;;;;;;11.10;99.90;;;;;;4984554;28;20495;-73
2022/03/17 11:19:13;;;;;;;;;;;11.20;99.90;;;;;;4996925;28;19925;-73
2022/03/17 11:21:43;;;;;;;;;;;11.10;99.90;;;;;;4987578;28;19937;-73
2022/03/17 11:24:17;;;;;;;;;;;11.40;99.90;;;;;;5002343;28;20087;-73
2022/03/17 11:26:44;;;;;;;;;;;11.30;99.90;;;;;;5002391;28;19929;-73
2022/03/17 11:29:14;;;;;;;;;;;11.30;99.90;;;;;;4984013;28;20013;-74
2022/03/17 11:31:57;;;;;;;;;;;11.20;99.90;;;;;;5006878;28;20024;-73
2022/03/17 11:34:37;;;;;;;;;;;11.40;99.90;;;;;;5000561;28;20028;-73
2022/03/17 11:37:22;;;;;;;;;;;11.30;99.90;;;;;;4986108;28;20016;-73
2022/03/17 11:39:55;;;;;;;;;;;11.60;99.90;;;;;;5003192;28;19933;-74
2022/03/17 11:42:30;;;;;;;;;;;11.50;99.90;;;;;;5002372;28;19940;-73
2022/03/17 11:45:14;;;;;;;;;;;11.70;99.90;;;;;;4988191;28;19940;-72
2022/03/17 11:47:50;;;;;;;;;;;11.60;99.90;;;;;;4985750;28;19929;-74
2022/03/17 11:50:25;;;;;;;;;;;11.90;99.90;;;;;;5001469;28;20319;-73
2022/03/17 11:53:02;;;;;;;;;;;12.10;99.90;;;;;;5003349;28;19929;-73
2022/03/17 11:55:48;;;;;;;;;;;12.10;99.90;;;;;;4983241;28;19955;-73
2022/03/17 11:58:19;;;;;;;;;;;12.10;99.90;;;;;;4995689;28;20066;-73
2022/03/17 12:00:46;;;;;;;;;;;12.60;99.90;;;;;;5001990;28;20378;-73
2022/03/17 12:03:12;;;;;;;;;;;13.00;99.90;;;;;;5000761;28;20361;-74
2022/03/17 12:05:39;;;;;;;;;;;13.00;99.90;;;;;;4983915;28;21996;-72
2022/03/17 12:08:04;;;;;;;;;;;12.90;99.90;;;;;;5020878;28;20746;-73
2022/03/17 12:10:49;;;;;;;;;;;13.20;99.90;;;;;;5003731;28;20465;-73
2022/03/17 12:13:22;;;;;;;;;;;13.40;99.90;;;;;;5003522;28;19929;-74
2022/03/17 12:15:55;;;;;;;;;;;13.50;99.90;;;;;;5021585;28;19932;-73
2022/03/17 12:18:20;;;;;;;;;;;13.50;99.90;;;;;;5002455;28;20124;-74
2022/03/17 12:20:46;;;;;;;;;;;13.10;99.90;;;;;;5021866;28;20077;-73
2022/03/17 12:23:31;;;;;;;;;;;13.30;91.90;;;;;;5003909;28;19928;-74
2022/03/17 12:26:05;;;;;;;;;;;13.50;99.90;;;;;;5006204;28;19933;-73
2022/03/17 12:28:31;;;;;;;;;;;13.70;99.90;;;;;;5003327;28;19928;-74
2022/03/17 12:30:57;;;;;;;;;;;13.50;99.50;;;;;;5005614;28;19929;-73
2022/03/17 12:33:24;;;;;;;;;;;13.40;99.90;;;;;;5022229;28;19940;-73
2022/03/17 12:36:03;;;;;;;;;;;12.90;99.90;;;;;;4985667;28;19929;-73
2022/03/17 12:38:29;;;;;;;;;;;12.60;99.90;;;;;;4997876;28;21930;-73
2022/03/17 12:40:56;;;;;;;;;;;12.40;99.90;;;;;;4974806;28;19940;-73
2022/03/17 12:43:22;;;;;;;;;;;12.30;99.90;;;;;;4994415;28;19979;-73
2022/03/17 12:45:49;;;;;;;;;;;12.80;99.90;;;;;;4992559;28;19936;-72
2022/03/17 12:48:16;;;;;;;;;;;13.20;91.90;;;;;;4991819;28;19964;-73
2022/03/17 12:50:42;;;;;;;;;;;12.80;95.40;;;;;;5013556;28;19959;-74
2022/03/17 12:53:09;;;;;;;;;;;12.40;99.60;;;;;;4999481;28;20341;-73
2022/03/17 12:55:35;;;;;;;;;;;13.00;97.70;;;;;;5016162;28;20031;-73
2022/03/17 12:58:02;;;;;;;;;;;13.00;94.80;;;;;;5010587;28;19982;-73
2022/03/17 13:00:28;;;;;;;;;;;12.90;99.90;;;;;;5017369;28;20019;-73
2022/03/17 13:02:54;;;;;;;;;;;12.50;93.70;;;;;;4982455;28;19935;-73
2022/03/17 13:08:05;;;;;;;;;;;13.20;96.30;;;;;;5006615;28;20024;-73
2022/03/17 13:14:20;;;;;;;;;;;13.60;99.90;;;;;;4987163;28;20016;-73
2022/03/17 13:16:05;;;;;;;;;;;13.50;96.50;;;;;;4984724;28;20012;-73
2022/03/17 13:18:43;;;;;;;;;;;13.60;96.40;;;;;;4992041;28;19933;-74
2022/03/17 13:21:12;;;;;;;;;;;13.70;90.00;;;;;;5012936;28;19995;-74
2022/03/17 13:23:38;;;;;;;;;;;13.60;92.90;;;;;;4993178;28;19940;-74
2022/03/17 13:26:04;;;;;;;;;;;13.60;85.90;;;;;;5012140;28;19928;-74
2022/03/17 13:28:30;;;;;;;;;;;13.50;84.10;;;;;;4994299;28;19935;-73
2022/03/17 13:30:56;;;;;;;;;;;13.80;87.90;;;;;;4994226;28;20608;-74
2022/03/17 13:33:29;;;;;;;;;;;13.70;77.20;;;;;;4993479;28;19932;-73
2022/03/17 13:35:55;;;;;;;;;;;13.10;82.50;;;;;;5007304;28;19928;-73
2022/03/17 13:38:21;;;;;;;;;;;12.90;84.80;;;;;;4987921;28;19929;-73
2022/03/17 13:40:48;;;;;;;;;;;13.10;97.60;;;;;;4995617;28;19928;-73
2022/03/17 13:43:15;;;;;;;;;;;13.30;91.00;;;;;;4990100;28;20348;-74
2022/03/17 13:45:42;;;;;;;;;;;13.70;92.60;;;;;;4989348;28;19928;-73
2022/03/17 13:48:15;;;;;;;;;;;13.80;93.10;;;;;;4991895;28;19955;-73
2022/03/17 13:50:42;;;;;;;;;;;13.30;84.50;;;;;;5009991;28;19925;-74
2022/03/17 13:53:08;;;;;;;;;;;13.70;92.70;;;;;;4992094;28;19931;-74
2022/03/17 13:55:46;;;;;;;;;;;13.50;96.30;;;;;;4990622;28;19940;-73
2022/03/17 13:58:15;;;;;;;;;;;13.40;94.30;;;;;;5005573;28;20063;-73
2022/03/17 14:00:41;;;;;;;;;;;13.70;94.50;;;;;;4978231;28;19933;-74
2022/03/17 14:03:11;;;;;;;;;;;13.10;78.90;;;;;;4994817;28;19933;-73
2022/03/17 14:05:56;;;;;;;;;;;13.30;95.60;;;;;;4990132;28;20677;-73
2022/03/17 14:08:22;;;;;;;;;;;13.50;95.90;;;;;;4996348;28;20541;-74
2022/03/17 14:10:47;;;;;;;;;;;13.40;94.30;;;;;;5009682;28;20919;-73
2022/03/17 14:13:13;;;;;;;;;;;13.50;96.50;;;;;;4991290;28;19929;-73
2022/03/17 14:15:38;;;;;;;;;;;13.70;89.40;;;;;;5006478;28;19928;-74
2022/03/17 14:18:04;;;;;;;;;;;13.80;90.60;;;;;;5011564;28;20402;-74
2022/03/17 14:20:29;;;;;;;;;;;13.40;84.00;;;;;;5011210;28;19928;-73
2022/03/17 14:25:40;;;;;;;;;;;13.30;78.60;;;;;;4994272;28;20597;-74
2022/03/17 14:28:05;;;;;;;;;;;13.10;76.80;;;;;;4996252;28;20707;-73
2022/03/17 14:30:31;;;;;;;;;;;13.40;89.00;;;;;;4992248;28;19979;-74
2022/03/17 14:32:56;;;;;;;;;;;13.50;92.00;;;;;;4991477;28;19944;-74
2022/03/17 14:35:22;;;;;;;;;;;13.30;80.90;;;;;;5007549;28;19935;-74
2022/03/17 14:37:47;;;;;;;;;;;13.40;84.00;;;;;;4992390;28;19935;-74
2022/03/17 14:40:13;;;;;;;;;;;13.60;91.00;;;;;;4988415;28;20086;-73
2022/03/17 14:42:39;;;;;;;;;;;13.60;85.40;;;;;;4988879;28;20091;-74
2022/03/17 14:45:04;;;;;;;;;;;13.60;86.30;;;;;;4995194;28;20383;-73
2022/03/17 14:47:32;;;;;;;;;;;13.60;86.10;;;;;;4993867;28;19928;-73